Time;durP1;ratioP1;P1;durP2;ratioP2;P2;SDS_P1;SDS_P2;PMS_P1;PMS_P2;Temp;Humidity;BMP_temperature;BMP_pressure;BME280_temperature;BME280_humidity;BME280_pressure;Samples;Min_cycle;Max_cycle;Signal;HPM_P1;HPM_P2
2021/07/01 00:00:21;;;;;;;20.40;14.07;;;14.70;99.90;;;;;;5073597;28;20204;-80
2021/07/01 00:02:47;;;;;;;18.77;14.13;;;14.80;99.90;;;;;;5071719;28;20209;-76
2021/07/01 00:05:15;;;;;;;18.47;14.07;;;14.70;99.90;;;;;;5073479;28;20210;-80
2021/07/01 00:07:42;;;;;;;17.63;13.00;;;14.70;99.90;;;;;;5074124;28;20154;-78
2021/07/01 00:10:28;;;;;;;21.17;14.07;;;14.60;99.90;;;;;;5073929;28;20180;-76
2021/07/01 00:12:55;;;;;;;19.50;13.93;;;14.60;99.90;;;;;;5061702;28;20188;-76
2021/07/01 00:15:25;;;;;;;21.50;13.60;;;14.60;99.90;;;;;;5063180;28;20164;-80
2021/07/01 00:17:52;;;;;;;19.93;14.27;;;14.50;99.90;;;;;;5060970;28;20161;-82
2021/07/01 00:20:19;;;;;;;18.73;13.77;;;14.60;99.90;;;;;;5056609;28;20207;-81
2021/07/01 00:22:45;;;;;;;19.63;13.60;;;14.60;99.90;;;;;;5058799;28;20184;-82
2021/07/01 00:25:32;;;;;;;19.43;14.10;;;14.60;99.90;;;;;;5056529;28;20166;-81
2021/07/01 00:27:59;;;;;;;19.77;12.87;;;14.60;99.90;;;;;;5058582;28;20172;-76
2021/07/01 00:30:25;;;;;;;21.23;13.97;;;14.60;99.90;;;;;;5054792;28;20232;-81
2021/07/01 00:32:51;;;;;;;18.33;13.37;;;14.70;99.90;;;;;;5055501;28;20178;-80
2021/07/01 00:35:17;;;;;;;22.23;13.63;;;14.70;99.90;;;;;;5054957;28;20183;-79
2021/07/01 00:37:44;;;;;;;17.20;13.00;;;14.60;99.90;;;;;;5054732;28;20173;-81
2021/07/01 00:40:11;;;;;;;20.83;13.27;;;14.60;99.90;;;;;;5054842;28;20205;-81
2021/07/01 00:42:38;;;;;;;20.03;13.93;;;14.60;99.90;;;;;;5055451;28;20563;-80
2021/07/01 00:45:06;;;;;;;18.23;12.67;;;14.60;99.90;;;;;;5054841;28;20170;-82
2021/07/01 00:47:33;;;;;;;21.73;13.27;;;14.60;99.90;;;;;;5055106;28;20173;-79
2021/07/01 00:50:02;;;;;;;17.53;12.20;;;14.60;99.90;;;;;;5056983;28;20165;-79
2021/07/01 00:52:28;;;;;;;18.23;12.80;;;14.50;99.90;;;;;;5055242;28;20161;-78
2021/07/01 00:54:53;;;;;;;17.87;12.47;;;14.50;99.90;;;;;;5069722;28;20520;-75
2021/07/01 00:57:19;;;;;;;19.10;12.53;;;14.50;99.90;;;;;;5055089;28;20216;-81
2021/07/01 00:59:45;;;;;;;17.20;12.23;;;14.50;99.90;;;;;;5055251;28;20205;-82
2021/07/01 01:02:13;;;;;;;18.30;12.80;;;14.50;99.90;;;;;;5059093;28;20180;-81
2021/07/01 01:04:39;;;;;;;22.07;13.00;;;14.50;99.90;;;;;;5054413;28;20177;-81
2021/07/01 01:07:05;;;;;;;19.77;12.40;;;14.50;99.90;;;;;;5069248;28;20263;-81
2021/07/01 01:09:30;;;;;;;18.57;12.70;;;14.50;99.90;;;;;;5070983;28;20191;-81
2021/07/01 01:11:57;;;;;;;19.03;12.53;;;14.50;99.90;;;;;;5055861;28;20681;-81
2021/07/01 01:14:22;;;;;;;20.13;11.80;;;14.60;99.90;;;;;;5070462;28;20193;-82
2021/07/01 01:16:48;;;;;;;18.13;12.27;;;14.60;99.90;;;;;;5056077;28;20195;-79
2021/07/01 01:19:15;;;;;;;16.00;11.93;;;14.60;99.90;;;;;;5072656;28;20216;-79
2021/07/01 01:21:49;;;;;;;19.17;12.50;;;14.60;99.90;;;;;;5061609;28;20217;-82
2021/07/01 01:24:16;;;;;;;16.30;11.43;;;14.70;99.90;;;;;;5055816;28;20167;-81
2021/07/01 01:26:42;;;;;;;16.47;12.17;;;14.70;99.90;;;;;;5054132;28;20169;-80
2021/07/01 01:29:07;;;;;;;20.57;12.77;;;14.60;99.90;;;;;;5076233;28;20181;-79
2021/07/01 01:31:36;;;;;;;22.40;12.60;;;14.60;99.90;;;;;;5072322;28;20169;-78
2021/07/01 01:34:03;;;;;;;18.83;12.33;;;14.60;99.90;;;;;;5075821;28;20161;-77
2021/07/01 01:36:28;;;;;;;17.63;11.97;;;14.60;99.90;;;;;;5071959;28;20162;-79
2021/07/01 01:38:54;;;;;;;19.27;11.70;;;14.60;99.90;;;;;;5083866;28;20231;-79
2021/07/01 01:41:24;;;;;;;20.43;11.53;;;14.60;99.90;;;;;;5066052;28;20180;-79
2021/07/01 01:43:49;;;;;;;18.97;11.90;;;14.60;99.90;;;;;;5063515;28;20669;-80
2021/07/01 01:46:17;;;;;;;18.07;11.80;;;14.50;99.90;;;;;;5059014;28;20165;-81
2021/07/01 01:48:53;;;;;;;14.60;11.33;;;14.50;99.90;;;;;;5079512;28;20180;-79
2021/07/01 01:51:25;;;;;;;17.27;11.80;;;14.50;99.90;;;;;;5059761;28;20157;-81
2021/07/01 01:53:57;;;;;;;20.27;13.27;;;14.50;99.90;;;;;;5055388;28;20165;-81
2021/07/01 01:56:22;;;;;;;21.33;12.10;;;14.50;99.90;;;;;;5070899;28;20181;-78
2021/07/01 01:58:49;;;;;;;20.97;12.77;;;14.60;99.90;;;;;;5055098;28;20674;-82
2021/07/01 02:01:14;;;;;;;16.70;11.67;;;14.70;99.90;;;;;;5054752;28;20172;-77
2021/07/01 02:03:40;;;;;;;19.50;12.27;;;14.60;99.90;;;;;;5054610;28;20165;-81
2021/07/01 02:06:06;;;;;;;15.57;11.23;;;14.60;99.90;;;;;;5055592;28;20256;-80
2021/07/01 02:08:32;;;;;;;17.30;12.77;;;14.70;99.90;;;;;;5054962;28;20173;-80
2021/07/01 02:10:59;;;;;;;20.83;13.07;;;14.70;99.90;;;;;;5073992;28;20172;-74
2021/07/01 02:13:24;;;;;;;19.33;13.57;;;14.80;99.90;;;;;;5075480;28;20185;-75
2021/07/01 02:15:50;;;;;;;19.27;12.80;;;14.80;99.90;;;;;;5075528;28;20165;-78
2021/07/01 02:18:16;;;;;;;16.30;12.40;;;14.70;99.90;;;;;;5057744;28;20177;-80
2021/07/01 02:20:41;;;;;;;23.30;12.73;;;14.50;99.90;;;;;;5058225;28;20575;-81
2021/07/01 02:23:10;;;;;;;19.10;12.80;;;14.50;99.90;;;;;;5073123;28;20731;-76
2021/07/01 02:25:36;;;;;;;20.73;13.07;;;14.70;99.90;;;;;;5057546;28;20180;-81
2021/07/01 02:28:05;;;;;;;21.30;12.73;;;14.60;99.90;;;;;;5057570;28;20247;-82
2021/07/01 02:30:30;;;;;;;20.40;13.70;;;14.60;99.90;;;;;;5062200;28;20625;-80
2021/07/01 02:32:56;;;;;;;19.57;13.50;;;14.50;99.90;;;;;;5072143;28;20181;-81
2021/07/01 02:35:22;;;;;;;20.27;13.70;;;14.60;99.90;;;;;;5073668;28;20694;-81
2021/07/01 02:37:48;;;;;;;20.27;14.30;;;14.60;99.90;;;;;;5056919;28;20509;-80
2021/07/01 02:40:16;;;;;;;26.73;15.13;;;14.50;99.90;;;;;;5056587;28;20291;-81
2021/07/01 02:42:43;;;;;;;20.10;14.50;;;14.50;99.90;;;;;;5056920;28;20173;-81
2021/07/01 02:45:10;;;;;;;24.17;14.53;;;14.50;99.90;;;;;;5057953;28;20227;-80
2021/07/01 02:47:36;;;;;;;24.47;14.47;;;14.50;99.90;;;;;;5057900;28;20166;-81
2021/07/01 02:50:03;;;;;;;18.03;13.67;;;14.40;99.90;;;;;;5056484;28;20162;-81
2021/07/01 02:52:29;;;;;;;25.30;15.27;;;14.40;99.90;;;;;;5056790;28;20178;-77
2021/07/01 02:54:55;;;;;;;23.87;14.73;;;14.50;99.90;;;;;;5056147;28;20178;-81
2021/07/01 02:57:20;;;;;;;21.53;13.93;;;14.50;99.90;;;;;;5056186;28;20182;-80
2021/07/01 02:59:46;;;;;;;22.90;14.07;;;14.60;99.90;;;;;;5061679;28;20672;-76
2021/07/01 03:02:12;;;;;;;21.70;15.13;;;14.80;99.90;;;;;;5074428;28;20174;-76
2021/07/01 03:04:38;;;;;;;18.67;14.20;;;14.80;99.90;;;;;;5074123;28;20248;-76
2021/07/01 03:07:04;;;;;;;21.13;14.03;;;14.70;99.90;;;;;;5069837;28;20149;-76
2021/07/01 03:09:29;;;;;;;22.13;16.87;;;14.70;99.90;;;;;;5077693;28;20157;-78
2021/07/01 03:11:55;;;;;;;23.57;15.37;;;14.70;99.90;;;;;;5075691;28;20173;-80
2021/07/01 03:14:21;;;;;;;22.87;14.93;;;14.70;99.90;;;;;;5077326;28;20172;-73
2021/07/01 03:16:52;;;;;;;19.83;15.40;;;14.60;99.90;;;;;;5078482;28;20161;-74
2021/07/01 03:19:18;;;;;;;20.43;14.70;;;14.60;99.90;;;;;;5069805;28;20213;-79
2021/07/01 03:21:47;;;;;;;22.03;15.10;;;14.60;99.90;;;;;;5059275;28;20190;-80
2021/07/01 03:24:19;;;;;;;18.53;14.53;;;14.60;99.90;;;;;;5058387;28;20166;-80
2021/07/01 03:26:48;;;;;;;24.17;16.73;;;14.50;99.90;;;;;;5056454;28;20189;-80
2021/07/01 03:29:17;;;;;;;19.23;14.53;;;14.50;99.90;;;;;;5055556;28;20248;-79
2021/07/01 03:31:42;;;;;;;22.73;14.73;;;14.50;99.90;;;;;;5055785;28;20180;-80
2021/07/01 03:34:08;;;;;;;21.57;15.30;;;14.60;99.90;;;;;;5089870;28;20185;-77
2021/07/01 03:36:34;;;;;;;22.20;15.13;;;14.50;99.90;;;;;;5079362;28;20173;-78
2021/07/01 03:39:03;;;;;;;19.77;15.77;;;14.60;99.90;;;;;;5078774;28;20207;-77
2021/07/01 03:41:30;;;;;;;22.80;15.80;;;14.60;99.90;;;;;;5061888;28;20249;-81
2021/07/01 03:43:55;;;;;;;23.13;16.17;;;14.70;99.90;;;;;;5061939;28;20161;-81
2021/07/01 03:47:15;;;;;;;23.80;15.63;;;14.50;99.90;;;;;;5059714;28;20173;-81
2021/07/01 03:49:46;;;;;;;20.13;15.00;;;14.60;99.90;;;;;;5058667;28;20157;-81
2021/07/01 03:52:16;;;;;;;21.80;14.77;;;14.50;99.90;;;;;;5055832;28;20180;-79
2021/07/01 03:54:42;;;;;;;19.50;15.30;;;14.50;99.90;;;;;;5060254;28;20206;-78
2021/07/01 03:57:07;;;;;;;23.50;16.00;;;14.50;99.90;;;;;;5058509;28;20169;-80
2021/07/01 03:59:33;;;;;;;20.27;14.70;;;14.50;99.90;;;;;;5056353;28;20236;-81
2021/07/01 04:01:59;;;;;;;20.30;14.67;;;14.50;99.90;;;;;;5056308;28;20556;-81
2021/07/01 04:04:25;;;;;;;22.53;14.60;;;14.50;99.90;;;;;;5056205;28;20211;-79
2021/07/01 04:06:50;;;;;;;18.93;13.57;;;14.50;99.90;;;;;;5056286;28;20531;-75
2021/07/01 04:09:16;;;;;;;19.93;13.93;;;14.50;99.90;;;;;;5071568;28;20182;-79
2021/07/01 04:11:42;;;;;;;22.90;13.57;;;14.50;99.90;;;;;;5055630;28;20176;-75
2021/07/01 04:14:08;;;;;;;19.43;13.80;;;14.60;99.90;;;;;;5055739;28;20181;-80
2021/07/01 04:16:33;;;;;;;22.37;14.33;;;14.60;99.90;;;;;;5055912;28;20238;-80
2021/07/01 04:18:59;;;;;;;23.23;14.00;;;14.60;99.90;;;;;;5056010;28;20211;-81
2021/07/01 04:21:28;;;;;;;19.30;13.90;;;14.60;99.90;;;;;;5055425;28;20176;-79
2021/07/01 04:23:57;;;;;;;20.93;14.27;;;14.60;99.90;;;;;;5057133;28;20195;-80
2021/07/01 04:26:24;;;;;;;19.23;14.03;;;14.70;99.90;;;;;;5055293;28;20521;-75
2021/07/01 04:28:51;;;;;;;18.50;13.90;;;14.70;99.90;;;;;;5071802;28;20222;-79
2021/07/01 04:31:18;;;;;;;21.47;14.10;;;14.60;99.90;;;;;;5055289;28;20177;-81
2021/07/01 04:33:44;;;;;;;20.50;13.50;;;14.60;99.90;;;;;;5055317;28;20219;-80
2021/07/01 04:36:10;;;;;;;15.63;13.17;;;14.60;99.90;;;;;;5055721;28;20241;-81
2021/07/01 04:38:36;;;;;;;20.27;13.50;;;14.60;99.90;;;;;;5056763;28;20200;-81
2021/07/01 04:41:01;;;;;;;20.53;13.67;;;14.70;99.90;;;;;;5057465;28;20194;-80
2021/07/01 04:43:28;;;;;;;20.03;13.90;;;14.60;99.90;;;;;;5072924;28;20716;-79
2021/07/01 04:45:54;;;;;;;21.77;13.47;;;14.70;99.90;;;;;;5056619;28;20170;-81
2021/07/01 04:48:20;;;;;;;20.87;13.57;;;14.60;99.90;;;;;;5056695;28;20172;-80
2021/07/01 04:50:46;;;;;;;19.27;13.20;;;14.70;99.90;;;;;;5054438;28;20535;-77
2021/07/01 04:53:12;;;;;;;17.70;13.40;;;14.70;99.90;;;;;;5071990;28;20169;-82
2021/07/01 04:55:37;;;;;;;21.00;14.17;;;14.70;99.90;;;;;;5071047;28;20180;-76
2021/07/01 04:58:03;;;;;;;20.50;13.63;;;14.70;99.90;;;;;;5055516;28;20196;-81
2021/07/01 05:00:29;;;;;;;17.50;12.70;;;14.70;99.90;;;;;;5054827;28;20209;-76
2021/07/01 05:02:54;;;;;;;16.60;12.10;;;14.70;99.90;;;;;;5055547;28;20173;-79
2021/07/01 05:05:20;;;;;;;17.70;12.27;;;14.80;99.90;;;;;;5054934;28;20173;-81
2021/07/01 05:07:47;;;;;;;17.50;12.93;;;14.70;99.90;;;;;;5055323;28;20173;-79
2021/07/01 05:10:14;;;;;;;27.60;14.07;;;14.70;99.90;;;;;;5055258;28;20172;-81
2021/07/01 05:12:40;;;;;;;22.13;13.83;;;14.80;99.90;;;;;;5054722;28;20640;-80
2021/07/01 05:15:06;;;;;;;18.93;12.97;;;14.80;99.90;;;;;;5054112;28;20184;-76
2021/07/01 05:17:33;;;;;;;17.00;12.50;;;14.90;99.90;;;;;;5055168;28;20194;-81
2021/07/01 05:20:00;;;;;;;21.43;12.97;;;15.00;99.90;;;;;;5055601;28;20225;-80
2021/07/01 05:22:25;;;;;;;16.07;11.80;;;15.00;99.90;;;;;;5054881;28;20235;-80
2021/07/01 05:24:51;;;;;;;17.07;12.23;;;15.00;99.90;;;;;;5056754;28;20255;-80
2021/07/01 05:27:17;;;;;;;21.93;12.33;;;14.80;99.90;;;;;;5066262;28;20650;-75
2021/07/01 05:29:42;;;;;;;16.53;12.20;;;14.90;99.90;;;;;;5069749;28;20173;-75
2021/07/01 05:32:08;;;;;;;16.63;11.57;;;14.90;99.90;;;;;;5067771;28;20544;-81
2021/07/01 05:34:34;;;;;;;19.27;11.97;;;14.90;99.90;;;;;;5058105;28;20180;-75
2021/07/01 05:37:00;;;;;;;18.60;11.70;;;14.80;99.90;;;;;;5056961;28;20229;-76
2021/07/01 05:39:27;;;;;;;18.40;11.50;;;14.70;99.90;;;;;;5055096;28;20213;-79
2021/07/01 05:41:53;;;;;;;17.63;10.53;;;14.80;99.90;;;;;;5053988;28;20174;-81
2021/07/01 05:44:18;;;;;;;17.57;9.97;;;14.80;99.90;;;;;;5054859;28;20505;-81
2021/07/01 05:46:44;;;;;;;14.57;10.30;;;14.90;99.90;;;;;;5054639;28;20625;-80
2021/07/01 05:49:11;;;;;;;15.43;10.90;;;14.80;99.90;;;;;;5054122;28;20262;-81
2021/07/01 05:51:37;;;;;;;16.00;10.90;;;14.90;99.90;;;;;;5056399;28;20608;-79
2021/07/01 05:56:36;;;;;;;18.30;9.60;;;14.90;99.90;;;;;;5058942;28;20181;-80
2021/07/01 05:59:05;;;;;;;14.33;9.13;;;14.90;99.90;;;;;;5057541;28;20231;-79
2021/07/01 06:01:30;;;;;;;13.00;9.17;;;14.90;99.90;;;;;;5059134;28;20190;-81
2021/07/01 06:03:56;;;;;;;15.70;9.93;;;14.90;99.90;;;;;;5058224;28;20274;-77
2021/07/01 06:06:23;;;;;;;14.90;9.20;;;15.00;99.90;;;;;;5059745;28;20202;-76
2021/07/01 06:08:49;;;;;;;14.90;8.90;;;14.80;99.90;;;;;;5059922;28;20178;-79
2021/07/01 06:11:16;;;;;;;13.73;8.83;;;14.70;99.90;;;;;;5060355;28;20227;-80
2021/07/01 06:13:43;;;;;;;15.50;9.43;;;14.70;99.90;;;;;;5058861;28;20648;-76
2021/07/01 06:16:13;;;;;;;14.43;8.80;;;14.80;99.90;;;;;;5057008;28;20171;-77
2021/07/01 06:18:41;;;;;;;18.13;8.73;;;14.90;99.90;;;;;;5057332;28;20626;-80
2021/07/01 06:21:07;;;;;;;11.60;7.80;;;15.00;99.90;;;;;;5057476;28;20261;-80
2021/07/01 06:23:33;;;;;;;12.70;9.10;;;15.00;99.90;;;;;;5056618;28;20239;-80
2021/07/01 06:25:59;;;;;;;13.77;9.00;;;15.00;99.90;;;;;;5051651;28;20661;-78
2021/07/01 06:28:29;;;;;;;12.37;8.30;;;15.10;99.90;;;;;;5056298;28;20204;-82
2021/07/01 06:30:55;;;;;;;13.00;8.97;;;15.00;99.90;;;;;;5059824;28;20175;-81
2021/07/01 06:33:22;;;;;;;16.07;8.73;;;15.10;99.90;;;;;;5058289;28;20176;-76
2021/07/01 06:35:54;;;;;;;14.50;8.73;;;15.10;99.90;;;;;;5045674;28;20289;-75
2021/07/01 06:38:23;;;;;;;16.33;8.73;;;15.20;99.90;;;;;;5054077;28;20257;-81
2021/07/01 06:40:50;;;;;;;13.90;7.87;;;15.20;99.90;;;;;;5046261;28;20207;-79
2021/07/01 06:43:24;;;;;;;11.43;7.23;;;15.10;99.90;;;;;;5055741;28;20208;-77
2021/07/01 06:45:49;;;;;;;14.33;8.40;;;14.90;99.90;;;;;;5067686;28;20170;-75
2021/07/01 06:48:16;;;;;;;12.43;7.80;;;14.80;99.90;;;;;;5062418;28;20223;-79
2021/07/01 06:50:42;;;;;;;14.40;8.43;;;15.00;99.90;;;;;;5058585;28;20229;-76
2021/07/01 06:53:07;;;;;;;13.77;8.63;;;14.90;99.90;;;;;;5059181;28;20169;-76
2021/07/01 06:55:36;;;;;;;15.57;9.17;;;14.90;99.90;;;;;;5056711;28;20640;-77
2021/07/01 06:58:08;;;;;;;13.77;7.97;;;15.00;99.90;;;;;;5057987;28;20185;-81
2021/07/01 07:00:37;;;;;;;14.37;7.53;;;15.00;99.90;;;;;;5058202;28;20201;-80
2021/07/01 07:03:07;;;;;;;11.20;6.93;;;15.00;99.90;;;;;;5061315;28;20254;-78
2021/07/01 07:05:33;;;;;;;12.97;7.80;;;14.90;99.90;;;;;;5069595;28;20180;-77
2021/07/01 07:08:00;;;;;;;10.97;6.93;;;14.60;99.90;;;;;;5067756;28;20157;-79
2021/07/01 07:10:25;;;;;;;13.67;7.57;;;14.60;99.90;;;;;;5066718;28;20535;-82
2021/07/01 07:12:54;;;;;;;15.10;7.90;;;14.50;99.90;;;;;;5068384;28;20684;-82
2021/07/01 07:15:29;;;;;;;11.70;8.27;;;14.50;99.90;;;;;;5064534;28;20224;-79
2021/07/01 07:18:03;;;;;;;14.30;7.73;;;14.50;99.90;;;;;;5055147;28;20296;-77
2021/07/01 07:20:31;;;;;;;13.40;7.67;;;14.50;99.90;;;;;;5050691;28;20197;-75
2021/07/01 07:23:01;;;;;;;15.03;7.30;;;14.60;99.90;;;;;;5046012;28;20276;-75
2021/07/01 07:25:27;;;;;;;14.57;7.27;;;14.60;99.90;;;;;;5048720;28;20188;-78
2021/07/01 07:28:05;;;;;;;13.37;7.60;;;14.60;99.90;;;;;;5057346;28;20224;-78
2021/07/01 07:30:32;;;;;;;15.83;7.80;;;14.60;99.90;;;;;;5057030;28;20177;-76
2021/07/01 07:33:07;;;;;;;12.03;7.57;;;14.60;99.90;;;;;;5058232;28;20504;-76
2021/07/01 07:35:37;;;;;;;11.97;6.80;;;14.60;99.90;;;;;;5057864;28;20172;-80
2021/07/01 07:38:09;;;;;;;11.47;6.90;;;14.80;99.90;;;;;;5062580;28;20192;-82
2021/07/01 07:40:39;;;;;;;14.23;7.10;;;14.70;99.90;;;;;;5060899;28;20250;-75
2021/07/01 07:43:08;;;;;;;12.23;7.00;;;14.60;99.90;;;;;;5061970;28;20167;-75
2021/07/01 07:45:34;;;;;;;13.13;7.43;;;14.80;99.90;;;;;;5068154;28;20211;-80
2021/07/01 07:48:01;;;;;;;13.43;7.10;;;14.90;99.90;;;;;;5058581;28;20650;-77
2021/07/01 07:50:26;;;;;;;10.10;6.27;;;15.00;99.90;;;;;;5057763;28;20629;-79
2021/07/01 07:52:57;;;;;;;13.77;7.20;;;15.00;99.80;;;;;;5056760;28;20199;-76
2021/07/01 07:55:30;;;;;;;9.60;6.20;;;14.90;99.40;;;;;;5057752;28;20300;-78
2021/07/01 07:58:02;;;;;;;11.33;5.87;;;14.90;99.00;;;;;;5057376;28;20271;-77
2021/07/01 08:00:28;;;;;;;11.17;5.20;;;15.10;99.20;;;;;;5071506;28;20210;-79
2021/07/01 08:02:59;;;;;;;11.47;5.07;;;15.10;95.80;;;;;;5062307;28;20210;-78
2021/07/01 08:05:33;;;;;;;12.07;5.30;;;14.90;94.80;;;;;;5042393;28;20173;-77
2021/07/01 08:07:59;;;;;;;8.17;4.83;;;14.90;95.30;;;;;;5054537;28;20181;-81
2021/07/01 08:10:30;;;;;;;9.27;4.90;;;14.80;95.00;;;;;;5040852;28;20184;-80
2021/07/01 08:13:02;;;;;;;9.73;4.73;;;14.80;94.10;;;;;;5039389;28;20209;-79
2021/07/01 08:15:29;;;;;;;12.80;5.03;;;14.90;94.00;;;;;;5066658;28;20181;-76
2021/07/01 08:17:55;;;;;;;8.87;4.80;;;14.90;94.30;;;;;;5058437;28;20233;-78
2021/07/01 08:20:34;;;;;;;15.47;5.13;;;14.90;93.60;;;;;;5056928;28;20198;-78
2021/07/01 08:23:22;;;;;;;11.83;5.10;;;15.00;94.60;;;;;;5052462;28;20683;-78
2021/07/01 08:25:49;;;;;;;9.50;5.60;;;15.20;94.10;;;;;;5055831;28;20232;-76
2021/07/01 08:28:20;;;;;;;11.43;5.07;;;15.20;93.50;;;;;;5036324;28;20708;-80
2021/07/01 08:30:48;;;;;;;8.20;4.77;;;15.20;92.70;;;;;;5038498;28;20229;-81
2021/07/01 08:33:21;;;;;;;8.97;4.47;;;15.10;93.40;;;;;;5075934;28;20184;-78
2021/07/01 08:35:54;;;;;;;9.60;4.87;;;15.20;93.20;;;;;;5073915;28;20173;-80
2021/07/01 08:38:20;;;;;;;9.20;4.60;;;15.30;92.70;;;;;;5076838;28;20291;-76
2021/07/01 08:40:49;;;;;;;9.60;4.90;;;15.30;91.20;;;;;;5076263;28;20246;-79
2021/07/01 08:43:19;;;;;;;8.97;4.63;;;15.30;91.60;;;;;;5075493;28;20192;-77
2021/07/01 08:46:14;;;;;;;12.87;5.03;;;15.30;91.50;;;;;;5075725;28;20208;-80
2021/07/01 08:48:58;;;;;;;10.37;5.07;;;15.30;91.50;;;;;;5058743;28;20176;-78
2021/07/01 08:51:32;;;;;;;11.80;4.77;;;15.20;91.10;;;;;;5055105;28;20242;-78
2021/07/01 08:54:22;;;;;;;12.50;5.10;;;15.30;91.30;;;;;;5055917;28;20610;-77
2021/07/01 08:56:49;;;;;;;13.73;5.40;;;15.30;91.10;;;;;;5036531;28;20180;-75
2021/07/01 08:59:18;;;;;;;10.37;4.97;;;15.40;91.90;;;;;;5056781;28;20203;-75
2021/07/01 09:01:57;;;;;;;12.03;4.97;;;15.50;90.40;;;;;;5055347;28;20590;-80
2021/07/01 09:04:25;;;;;;;14.07;5.40;;;15.70;89.30;;;;;;5055450;28;20173;-84
2021/07/01 09:07:02;;;;;;;8.03;4.80;;;15.70;90.10;;;;;;5061024;28;20260;-76
2021/07/01 09:09:32;;;;;;;9.73;4.70;;;15.70;87.80;;;;;;5056894;28;20633;-79
2021/07/01 09:12:01;;;;;;;9.77;4.63;;;15.80;81.30;;;;;;5061093;28;20166;-76
2021/07/01 09:14:29;;;;;;;13.73;5.10;;;15.60;84.60;;;;;;5057014;28;20550;-80
2021/07/01 09:16:59;;;;;;;10.63;5.37;;;15.50;86.20;;;;;;5057512;28;20165;-79
2021/07/01 09:19:25;;;;;;;10.13;5.23;;;15.60;86.90;;;;;;5057720;28;20201;-80
2021/07/01 09:21:51;;;;;;;11.07;4.93;;;15.40;86.30;;;;;;5060111;28;20166;-80
2021/07/01 09:24:21;;;;;;;9.03;4.77;;;15.30;88.70;;;;;;5059138;28;20544;-78
2021/07/01 09:26:48;;;;;;;10.73;4.67;;;15.30;88.40;;;;;;5061929;28;20225;-78
2021/07/01 09:29:16;;;;;;;9.87;4.70;;;15.30;86.90;;;;;;5060730;28;20185;-81
2021/07/01 09:31:42;;;;;;;11.17;5.63;;;15.30;88.10;;;;;;5058170;28;20176;-76
2021/07/01 09:34:09;;;;;;;11.87;5.97;;;15.60;86.90;;;;;;5054955;28;20179;-80
2021/07/01 09:36:36;;;;;;;13.67;6.53;;;15.70;83.70;;;;;;5058102;28;20196;-77
2021/07/01 09:39:04;;;;;;;10.30;6.30;;;15.60;85.00;;;;;;5048074;28;20193;-79
2021/07/01 09:41:30;;;;;;;9.03;5.67;;;15.60;86.40;;;;;;5038533;28;20166;-80
2021/07/01 09:43:58;;;;;;;15.67;6.07;;;15.60;85.40;;;;;;5051729;28;20238;-77
2021/07/01 09:46:28;;;;;;;13.30;6.83;;;15.70;86.60;;;;;;5058995;28;20181;-77
2021/07/01 09:48:58;;;;;;;11.57;6.03;;;15.70;86.90;;;;;;5050269;28;20326;-80
2021/07/01 09:51:27;;;;;;;13.30;6.03;;;15.80;87.60;;;;;;5021882;28;20584;-80
2021/07/01 09:53:53;;;;;;;10.00;5.33;;;16.10;83.40;;;;;;5039886;28;20213;-80
2021/07/01 09:56:38;;;;;;;10.87;5.77;;;16.20;80.70;;;;;;5058790;28;20230;-82
2021/07/01 09:59:18;;;;;;;11.43;6.17;;;16.00;80.30;;;;;;5060118;28;20205;-78
2021/07/01 10:01:43;;;;;;;10.77;5.13;;;16.10;80.00;;;;;;5060786;28;20268;-76
2021/07/01 10:04:09;;;;;;;11.60;5.50;;;16.10;74.90;;;;;;5061136;28;20176;-75
2021/07/01 10:06:35;;;;;;;12.87;5.43;;;16.00;76.30;;;;;;5058329;28;20238;-78
2021/07/01 10:09:02;;;;;;;9.83;5.00;;;15.80;79.10;;;;;;5055867;28;20685;-79
2021/07/01 10:11:42;;;;;;;11.60;6.07;;;16.00;78.80;;;;;;5058539;28;20226;-81
2021/07/01 10:14:10;;;;;;;10.43;5.73;;;15.90;78.00;;;;;;5058209;28;20195;-76
2021/07/01 10:16:36;;;;;;;9.30;5.10;;;15.80;78.80;;;;;;5057502;28;20203;-76
2021/07/01 10:19:07;;;;;;;10.00;5.87;;;15.70;78.60;;;;;;5057354;28;20326;-79
2021/07/01 10:21:35;;;;;;;13.73;7.00;;;15.80;83.40;;;;;;5057581;28;20186;-77
2021/07/01 10:24:29;;;;;;;14.00;5.77;;;15.80;83.20;;;;;;5052565;28;20186;-76
2021/07/01 10:26:56;;;;;;;11.80;5.40;;;15.90;78.80;;;;;;5047020;28;20181;-79
2021/07/01 10:29:39;;;;;;;8.73;5.10;;;15.90;79.30;;;;;;5066671;28;20263;-80
2021/07/01 10:32:07;;;;;;;10.03;5.77;;;16.00;79.30;;;;;;5059621;28;20181;-78
2021/07/01 10:34:48;;;;;;;12.90;6.23;;;15.90;78.10;;;;;;5056813;28;20198;-78
2021/07/01 10:37:21;;;;;;;13.43;6.00;;;16.00;79.90;;;;;;5049027;28;20580;-77
2021/07/01 10:39:49;;;;;;;12.53;6.40;;;16.00;77.50;;;;;;5056891;28;20223;-83
2021/07/01 10:42:17;;;;;;;11.10;6.00;;;15.90;77.50;;;;;;5054999;28;20187;-77
2021/07/01 10:44:43;;;;;;;12.53;6.20;;;15.90;79.20;;;;;;5042027;28;20204;-81
2021/07/01 10:47:28;;;;;;;12.30;5.17;;;16.10;76.80;;;;;;5048828;28;20173;-81
2021/07/01 10:49:55;;;;;;;11.83;6.03;;;16.20;72.30;;;;;;5039464;28;20178;-83
2021/07/01 10:52:38;;;;;;;14.30;6.33;;;16.20;70.90;;;;;;5048218;28;20163;-77
2021/07/01 10:55:04;;;;;;;10.30;5.83;;;16.10;70.40;;;;;;5053795;28;20177;-80
2021/07/01 10:57:31;;;;;;;14.80;5.97;;;16.10;68.40;;;;;;5057892;28;20245;-79
2021/07/01 10:59:58;;;;;;;11.07;5.80;;;16.40;68.20;;;;;;5061537;28;20210;-81
2021/07/01 11:02:25;;;;;;;9.27;5.43;;;16.60;66.60;;;;;;5057785;28;20652;-76
2021/07/01 11:04:52;;;;;;;10.07;5.90;;;16.60;65.30;;;;;;5053996;28;20170;-76
2021/07/01 11:07:21;;;;;;;11.50;5.27;;;16.50;65.00;;;;;;5058825;28;20521;-81
2021/07/01 11:09:51;;;;;;;10.70;5.23;;;16.50;63.50;;;;;;5056253;28;20181;-75
2021/07/01 11:12:18;;;;;;;14.07;6.83;;;16.50;65.40;;;;;;5061800;28;20170;-76
2021/07/01 11:14:50;;;;;;;11.93;6.63;;;16.40;70.10;;;;;;5061373;28;20173;-80
2021/07/01 11:17:28;;;;;;;16.33;6.40;;;16.30;71.10;;;;;;5060521;28;20214;-76
2021/07/01 11:19:54;;;;;;;11.80;6.33;;;16.30;73.30;;;;;;5059520;28;20295;-76
2021/07/01 11:22:20;;;;;;;15.67;7.03;;;16.30;69.90;;;;;;5022328;28;20233;-76
2021/07/01 11:24:46;;;;;;;14.23;7.23;;;16.30;69.20;;;;;;5047155;28;20183;-78
2021/07/01 11:27:21;;;;;;;12.37;7.00;;;16.10;71.90;;;;;;5059998;28;20207;-76
2021/07/01 11:29:49;;;;;;;10.63;6.03;;;16.10;69.10;;;;;;5040318;28;20175;-79
2021/07/01 11:32:21;;;;;;;16.77;7.00;;;16.00;68.10;;;;;;5047154;28;20179;-81
2021/07/01 11:34:51;;;;;;;14.10;6.87;;;15.90;71.50;;;;;;5069984;28;20266;-76
2021/07/01 11:37:35;;;;;;;11.23;6.60;;;16.00;67.00;;;;;;5043184;28;20174;-83
2021/07/01 11:40:22;;;;;;;13.83;7.27;;;16.00;67.10;;;;;;5044131;28;20189;-77
2021/07/01 11:42:50;;;;;;;14.60;6.20;;;16.20;65.60;;;;;;5057583;28;20522;-78
2021/07/01 11:45:16;;;;;;;10.20;5.97;;;16.40;64.20;;;;;;5061585;28;20240;-76
2021/07/01 11:47:44;;;;;;;12.27;5.60;;;16.60;63.40;;;;;;5055824;28;20154;-77
2021/07/01 11:50:10;;;;;;;14.07;7.03;;;16.80;62.80;;;;;;5059445;28;20163;-78
2021/07/01 11:52:41;;;;;;;12.13;6.70;;;16.80;56.30;;;;;;5067021;28;20180;-75
2021/07/01 11:55:07;;;;;;;10.97;6.90;;;16.90;57.10;;;;;;5054747;28;20173;-81
2021/07/01 11:57:33;;;;;;;11.73;6.40;;;16.90;57.20;;;;;;5064974;28;20225;-77
2021/07/01 11:59:59;;;;;;;13.80;6.87;;;16.90;45.10;;;;;;5049450;28;20189;-75
2021/07/01 12:02:25;;;;;;;13.33;6.60;;;17.10;48.70;;;;;;5062519;28;20173;-76
2021/07/01 12:04:54;;;;;;;10.97;6.10;;;17.30;48.20;;;;;;5058146;28;20180;-75
2021/07/01 12:07:24;;;;;;;12.97;6.30;;;17.50;39.00;;;;;;5062824;28;20617;-75
2021/07/01 12:09:53;;;;;;;12.43;6.50;;;17.60;35.30;;;;;;5063824;28;20177;-75
2021/07/01 12:12:25;;;;;;;13.97;8.97;;;17.70;27.50;;;;;;5044532;28;20253;-81
2021/07/01 12:15:07;;;;;;;11.70;6.67;;;17.70;28.70;;;;;;5045852;28;20173;-78
2021/07/01 12:18:03;;;;;;;12.77;7.03;;;17.70;26.90;;;;;;5056262;28;20216;-79
2021/07/01 12:20:32;;;;;;;12.57;7.37;;;17.70;28.00;;;;;;5056262;28;20202;-77
2021/07/01 12:22:59;;;;;;;14.20;7.70;;;17.50;31.00;;;;;;5053736;28;20192;-75
2021/07/01 12:25:25;;;;;;;12.03;6.67;;;17.50;35.10;;;;;;5071085;28;20173;-79
2021/07/01 12:28:06;;;;;;;12.43;6.50;;;17.50;35.50;;;;;;5072832;28;20161;-76
2021/07/01 12:31:00;;;;;;;9.80;7.10;;;17.40;33.60;;;;;;5060470;28;20230;-76
2021/07/01 12:34:03;;;;;;;9.10;6.20;;;17.40;35.80;;;;;;5071057;28;20177;-75
2021/07/01 12:36:33;;;;;;;15.47;7.17;;;17.30;37.50;;;;;;5065497;28;20169;-76
2021/07/01 12:42:22;;;;;;;14.67;6.27;;;17.50;32.70;;;;;;5048716;28;20225;-78
2021/07/01 12:44:51;;;;;;;12.03;6.90;;;17.60;37.60;;;;;;5046016;28;20639;-79
2021/07/01 12:47:36;;;;;;;10.83;6.13;;;18.00;29.40;;;;;;5046708;28;20189;-76